createdAt,value
2023-03-13T00:02:15.355Z,7.00
2023-03-13T00:10:21.084Z,6.80
2023-03-13T00:18:28.986Z,7.00
2023-03-13T00:26:34.406Z,6.90
2023-03-13T00:34:42.352Z,7.10
2023-03-13T00:42:47.638Z,7.00
2023-03-13T00:50:55.795Z,7.00
2023-03-13T00:59:03.580Z,6.90
2023-03-13T01:07:11.540Z,6.80
2023-03-13T01:15:19.803Z,6.80
2023-03-13T01:23:29.725Z,6.60
2023-03-13T01:31:37.409Z,6.60
2023-03-13T01:39:48.219Z,6.50
2023-03-13T01:47:53.932Z,6.60
2023-03-13T01:56:18.522Z,6.60
2023-03-13T02:04:26.562Z,6.80
2023-03-13T02:12:37.562Z,6.90
2023-03-13T02:20:43.818Z,6.70
2023-03-13T02:28:51.832Z,6.70
2023-03-13T02:36:59.398Z,5.90
2023-03-13T02:45:08.998Z,6.20
2023-03-13T02:53:14.531Z,6.20
2023-03-13T03:01:22.562Z,5.10
2023-03-13T03:09:28.464Z,5.30
2023-03-13T03:17:41.511Z,5.90
2023-03-13T03:25:47.976Z,5.30
2023-03-13T03:33:56.236Z,5.10
2023-03-13T03:42:01.812Z,5.30
2023-03-13T03:50:11.271Z,5.10
2023-03-13T03:58:25.532Z,5.20
2023-03-13T04:06:43.083Z,5.30
2023-03-13T04:14:49.776Z,5.20
2023-03-13T04:22:57.940Z,5.40
2023-03-13T04:31:03.627Z,4.40
2023-03-13T04:39:32.934Z,4.80
2023-03-13T04:47:57.135Z,4.50
2023-03-13T04:56:42.846Z,4.80
2023-03-13T05:05:09.750Z,5.10
2023-03-13T05:13:36.515Z,5.00
2023-03-13T05:22:11.021Z,4.50
2023-03-13T05:30:28.031Z,4.50
2023-03-13T05:38:53.676Z,5.10
2023-03-13T05:47:17.451Z,5.90
2023-03-13T05:55:41.239Z,6.40
2023-03-13T06:04:01.783Z,6.90
2023-03-13T06:12:10.436Z,7.50
2023-03-13T06:20:19.282Z,7.50
2023-03-13T06:28:24.751Z,7.60
2023-03-13T06:36:33.081Z,8.30
2023-03-13T06:44:38.603Z,8.90
2023-03-13T06:52:46.653Z,9.50
2023-03-13T07:00:52.012Z,9.10
2023-03-13T07:08:59.984Z,9.70
2023-03-13T07:17:05.487Z,9.70
2023-03-13T07:25:14.020Z,10.00
2023-03-13T07:33:19.524Z,10.60
2023-03-13T07:41:27.560Z,10.70
2023-03-13T07:49:39.485Z,11.70
2023-03-13T07:57:47.561Z,12.40
2023-03-13T08:06:02.022Z,12.50
2023-03-13T08:14:10.965Z,13.40
2023-03-13T08:22:16.503Z,13.40
2023-03-13T08:30:24.827Z,13.40
2023-03-13T08:38:30.294Z,13.80
2023-03-13T08:46:39.889Z,14.40
2023-03-13T08:54:45.575Z,14.70
2023-03-13T09:02:53.508Z,15.00
2023-03-13T09:11:00.104Z,15.20
2023-03-13T09:19:09.713Z,15.20
2023-03-13T09:27:15.311Z,16.30
2023-03-13T09:35:23.492Z,17.10
2023-03-13T09:43:39.109Z,17.80
2023-03-13T09:51:51.922Z,18.40
2023-03-13T10:00:02.020Z,19.80
2023-03-13T10:08:19.351Z,27.30
2023-03-13T10:16:28.522Z,37.00
2023-03-13T10:24:41.165Z,42.20
2023-03-13T10:32:46.971Z,44.00
2023-03-13T10:41:00.535Z,45.90
2023-03-13T10:49:07.723Z,47.30
2023-03-13T10:57:34.033Z,46.80
2023-03-13T11:05:45.547Z,47.60
2023-03-13T11:13:53.654Z,45.80
2023-03-13T11:22:10.405Z,45.90
2023-03-13T11:30:27.300Z,48.80
2023-03-13T11:38:38.270Z,47.30
2023-03-13T11:46:55.673Z,47.00
2023-03-13T11:55:35.741Z,44.70
2023-03-13T12:03:49.709Z,34.70
2023-03-13T12:12:03.750Z,26.60
2023-03-13T12:20:22.890Z,22.30
2023-03-13T12:28:38.174Z,21.50
2023-03-13T12:36:51.724Z,19.70
2023-03-13T12:44:57.743Z,20.00
2023-03-13T12:53:32.573Z,18.10
2023-03-13T13:01:43.132Z,17.90
2023-03-13T13:10:26.640Z,18.40
2023-03-13T13:18:36.548Z,18.80
2023-03-13T13:26:50.000Z,18.30
2023-03-13T13:35:06.479Z,19.00
2023-03-13T13:43:25.854Z,18.60
2023-03-13T13:51:34.898Z,18.60
2023-03-13T13:59:45.773Z,18.90
2023-03-13T14:08:02.049Z,19.00
2023-03-13T14:16:25.150Z,19.20
2023-03-13T14:24:33.097Z,19.20
2023-03-13T14:32:38.875Z,19.00
2023-03-13T14:40:47.069Z,18.70
2023-03-13T14:48:52.462Z,17.70
2023-03-13T14:57:21.402Z,17.10
2023-03-13T15:05:36.982Z,17.60
2023-03-13T15:13:46.156Z,17.40
2023-03-13T15:21:55.589Z,17.70
2023-03-13T15:30:03.539Z,17.00
2023-03-13T15:38:16.056Z,17.50
2023-03-13T15:46:24.372Z,16.80
2023-03-13T15:54:29.877Z,17.10
2023-03-13T16:02:38.203Z,16.50
2023-03-13T16:10:43.943Z,16.60
2023-03-13T16:18:53.382Z,16.40
2023-03-13T16:26:58.779Z,16.60
2023-03-13T16:35:06.992Z,16.50
2023-03-13T16:43:15.470Z,16.60
2023-03-13T16:51:25.257Z,16.60
2023-03-13T16:59:30.909Z,16.50
2023-03-13T17:07:42.865Z,16.50
2023-03-13T17:15:48.431Z,16.20
2023-03-13T17:23:56.999Z,16.20
2023-03-13T17:32:06.383Z,15.70
2023-03-13T17:40:19.972Z,15.00
2023-03-13T17:48:27.934Z,14.70
2023-03-13T17:56:39.363Z,14.70
2023-03-13T18:04:45.617Z,14.50
2023-03-13T18:12:54.836Z,14.20
2023-03-13T18:21:01.082Z,13.90
2023-03-13T18:29:20.608Z,14.40
2023-03-13T18:37:30.791Z,13.70
2023-03-13T18:45:39.678Z,13.50
2023-03-13T18:53:46.880Z,13.40
2023-03-13T19:01:55.611Z,13.50
2023-03-13T19:10:01.838Z,13.60
2023-03-13T19:18:13.247Z,13.70
2023-03-13T19:26:21.159Z,13.60
2023-03-13T19:34:29.201Z,13.60
2023-03-13T19:42:35.459Z,13.50
2023-03-13T19:50:43.670Z,13.50
2023-03-13T19:58:50.689Z,13.40
2023-03-13T20:06:58.783Z,13.30
2023-03-13T20:15:04.494Z,13.20
2023-03-13T20:23:12.947Z,13.10
2023-03-13T20:31:19.242Z,13.00
2023-03-13T20:39:28.621Z,12.50
2023-03-13T20:47:33.874Z,12.60
2023-03-13T20:55:43.507Z,12.40
2023-03-13T21:03:48.997Z,12.30
2023-03-13T21:11:57.072Z,12.20
2023-03-13T21:20:06.911Z,12.10
2023-03-13T21:28:14.907Z,12.20
2023-03-13T21:36:22.677Z,12.30
2023-03-13T21:44:30.853Z,12.50
2023-03-13T21:52:40.911Z,12.20
2023-03-13T22:00:49.546Z,11.70
2023-03-13T22:08:57.156Z,11.40
2023-03-13T22:17:08.964Z,11.50
2023-03-13T22:25:23.224Z,11.50
2023-03-13T22:33:32.442Z,11.60
2023-03-13T22:41:39.801Z,11.50
2023-03-13T22:49:48.158Z,11.10
2023-03-13T22:57:53.635Z,11.40
2023-03-13T23:06:01.664Z,11.50
2023-03-13T23:14:07.105Z,11.60
2023-03-13T23:22:18.203Z,11.40
2023-03-13T23:30:24.016Z,11.30
2023-03-13T23:38:32.098Z,11.30
2023-03-13T23:46:37.735Z,11.20
2023-03-13T23:54:45.818Z,11.20
